Аэропорт: Рощино. Тюмень

ICAO: USTR

METAR:
2018/09/19 07:30
USTR 190730Z 14008MPS CAVOK 17/05 Q1005 R12/CLRD65 TEMPO 14015MPS RMK QFE745/0994
METAR:
2018/09/19 06:00
TAF USTR 190500Z 1906/2006 14006G11MPS 9999 SCT030 
      TEMPO 1906/1915 13018MPS